sensor_id;sensor_type;location;lat;lon;timestamp;temperature;humidity
12264;DHT22;6194;49.010;8.414;2023-04-24T00:00:02;11.00;99.90
12264;DHT22;6194;49.010;8.414;2023-04-24T00:02:31;11.00;99.90
12264;DHT22;6194;49.010;8.414;2023-04-24T00:04:58;10.90;99.90
12264;DHT22;6194;49.010;8.414;2023-04-24T00:07:28;11.10;99.90
12264;DHT22;6194;49.010;8.414;2023-04-24T00:09:54;11.10;99.90
12264;DHT22;6194;49.010;8.414;2023-04-24T00:12:20;11.20;99.90
12264;DHT22;6194;49.010;8.414;2023-04-24T00:14:45;11.30;99.90
12264;DHT22;6194;49.010;8.414;2023-04-24T00:17:11;11.40;99.90
12264;DHT22;6194;49.010;8.414;2023-04-24T00:19:37;11.50;99.90
12264;DHT22;6194;49.010;8.414;2023-04-24T00:22:02;11.60;99.90
12264;DHT22;6194;49.010;8.414;2023-04-24T00:24:28;11.70;99.90
12264;DHT22;6194;49.010;8.414;2023-04-24T00:26:54;11.80;99.90
12264;DHT22;6194;49.010;8.414;2023-04-24T00:29:19;11.80;99.90
12264;DHT22;6194;49.010;8.414;2023-04-24T00:31:45;11.80;99.90
12264;DHT22;6194;49.010;8.414;2023-04-24T00:34:11;11.80;99.90
12264;DHT22;6194;49.010;8.414;2023-04-24T00:36:37;11.80;99.90
12264;DHT22;6194;49.010;8.414;2023-04-24T00:39:02;12.00;99.90
12264;DHT22;6194;49.010;8.414;2023-04-24T00:41:28;11.70;99.90
12264;DHT22;6194;49.010;8.414;2023-04-24T00:43:54;11.70;99.90
12264;DHT22;6194;49.010;8.414;2023-04-24T00:46:21;11.70;99.90
12264;DHT22;6194;49.010;8.414;2023-04-24T00:48:47;11.80;99.90
12264;DHT22;6194;49.010;8.414;2023-04-24T00:51:12;11.80;99.90
12264;DHT22;6194;49.010;8.414;2023-04-24T00:53:38;11.80;99.90
12264;DHT22;6194;49.010;8.414;2023-04-24T00:56:04;12.10;99.90
12264;DHT22;6194;49.010;8.414;2023-04-24T00:58:30;11.80;99.90
12264;DHT22;6194;49.010;8.414;2023-04-24T01:00:57;11.80;99.90
12264;DHT22;6194;49.010;8.414;2023-04-24T01:03:26;11.90;99.90
12264;DHT22;6194;49.010;8.414;2023-04-24T01:05:54;11.80;99.90
12264;DHT22;6194;49.010;8.414;2023-04-24T01:08:26;11.80;99.90
12264;DHT22;6194;49.010;8.414;2023-04-24T01:10:52;11.70;99.90
12264;DHT22;6194;49.010;8.414;2023-04-24T01:13:19;11.60;99.90
12264;DHT22;6194;49.010;8.414;2023-04-24T01:15:45;11.50;99.90
12264;DHT22;6194;49.010;8.414;2023-04-24T01:18:11;11.50;99.90
12264;DHT22;6194;49.010;8.414;2023-04-24T01:20:39;11.50;99.90
12264;DHT22;6194;49.010;8.414;2023-04-24T01:23:06;11.40;99.90
12264;DHT22;6194;49.010;8.414;2023-04-24T01:25:32;11.40;99.90
12264;DHT22;6194;49.010;8.414;2023-04-24T01:27:58;11.40;99.90
12264;DHT22;6194;49.010;8.414;2023-04-24T01:30:25;11.50;99.90
12264;DHT22;6194;49.010;8.414;2023-04-24T01:32:51;11.40;99.90
12264;DHT22;6194;49.010;8.414;2023-04-24T01:35:17;11.50;99.90
12264;DHT22;6194;49.010;8.414;2023-04-24T01:37:43;11.60;99.90
12264;DHT22;6194;49.010;8.414;2023-04-24T01:40:09;11.70;99.90
12264;DHT22;6194;49.010;8.414;2023-04-24T01:42:35;11.70;99.90
12264;DHT22;6194;49.010;8.414;2023-04-24T01:45:02;11.70;99.90
12264;DHT22;6194;49.010;8.414;2023-04-24T01:47:30;11.60;99.90
12264;DHT22;6194;49.010;8.414;2023-04-24T01:49:56;11.60;99.90
12264;DHT22;6194;49.010;8.414;2023-04-24T01:52:21;11.40;99.90
12264;DHT22;6194;49.010;8.414;2023-04-24T01:54:47;11.40;99.90
12264;DHT22;6194;49.010;8.414;2023-04-24T01:57:14;11.30;99.90
12264;DHT22;6194;49.010;8.414;2023-04-24T01:59:40;11.20;99.90
12264;DHT22;6194;49.010;8.414;2023-04-24T02:02:05;11.10;99.90
12264;DHT22;6194;49.010;8.414;2023-04-24T02:04:31;11.00;99.90
12264;DHT22;6194;49.010;8.414;2023-04-24T02:06:57;11.00;99.90
12264;DHT22;6194;49.010;8.414;2023-04-24T02:09:22;10.90;99.90
12264;DHT22;6194;49.010;8.414;2023-04-24T02:11:48;11.10;99.90
12264;DHT22;6194;49.010;8.414;2023-04-24T02:14:14;10.80;99.90
12264;DHT22;6194;49.010;8.414;2023-04-24T02:16:39;10.80;99.90
12264;DHT22;6194;49.010;8.414;2023-04-24T02:19:05;10.80;99.90
12264;DHT22;6194;49.010;8.414;2023-04-24T02:21:31;10.80;99.90
12264;DHT22;6194;49.010;8.414;2023-04-24T02:23:57;11.00;99.90
12264;DHT22;6194;49.010;8.414;2023-04-24T02:26:23;11.10;99.90
12264;DHT22;6194;49.010;8.414;2023-04-24T02:28:48;11.20;99.90
12264;DHT22;6194;49.010;8.414;2023-04-24T02:31:14;11.20;99.90
12264;DHT22;6194;49.010;8.414;2023-04-24T02:33:40;11.30;99.90
12264;DHT22;6194;49.010;8.414;2023-04-24T02:36:05;11.40;99.90
12264;DHT22;6194;49.010;8.414;2023-04-24T02:38:31;11.40;99.90
12264;DHT22;6194;49.010;8.414;2023-04-24T02:40:57;11.50;99.90
12264;DHT22;6194;49.010;8.414;2023-04-24T02:43:22;11.70;99.90
12264;DHT22;6194;49.010;8.414;2023-04-24T02:45:48;11.50;99.90
12264;DHT22;6194;49.010;8.414;2023-04-24T02:48:14;11.80;99.90
12264;DHT22;6194;49.010;8.414;2023-04-24T02:50:40;11.60;99.90
12264;DHT22;6194;49.010;8.414;2023-04-24T02:53:05;11.70;99.90
12264;DHT22;6194;49.010;8.414;2023-04-24T02:55:31;11.80;99.90
12264;DHT22;6194;49.010;8.414;2023-04-24T02:57:56;11.70;99.90
12264;DHT22;6194;49.010;8.414;2023-04-24T03:00:22;11.50;99.90
12264;DHT22;6194;49.010;8.414;2023-04-24T03:02:48;11.30;99.90
12264;DHT22;6194;49.010;8.414;2023-04-24T03:05:14;11.10;99.90
12264;DHT22;6194;49.010;8.414;2023-04-24T03:07:40;11.00;99.90
12264;DHT22;6194;49.010;8.414;2023-04-24T03:10:06;11.00;99.90
12264;DHT22;6194;49.010;8.414;2023-04-24T03:12:32;10.70;99.90
12264;DHT22;6194;49.010;8.414;2023-04-24T03:14:58;10.70;99.90
12264;DHT22;6194;49.010;8.414;2023-04-24T03:17:23;10.60;99.90
12264;DHT22;6194;49.010;8.414;2023-04-24T03:19:49;10.60;99.90
12264;DHT22;6194;49.010;8.414;2023-04-24T03:22:14;10.50;99.90
12264;DHT22;6194;49.010;8.414;2023-04-24T03:24:40;10.40;99.90
12264;DHT22;6194;49.010;8.414;2023-04-24T03:27:05;10.40;99.90
12264;DHT22;6194;49.010;8.414;2023-04-24T03:29:31;10.40;99.90
12264;DHT22;6194;49.010;8.414;2023-04-24T03:31:57;10.30;99.90
12264;DHT22;6194;49.010;8.414;2023-04-24T03:34:22;10.30;99.90
12264;DHT22;6194;49.010;8.414;2023-04-24T03:36:48;10.30;99.90
12264;DHT22;6194;49.010;8.414;2023-04-24T03:39:13;10.30;99.90
12264;DHT22;6194;49.010;8.414;2023-04-24T03:41:39;10.70;99.90
12264;DHT22;6194;49.010;8.414;2023-04-24T03:44:04;10.30;99.90
12264;DHT22;6194;49.010;8.414;2023-04-24T03:46:30;10.30;99.90
12264;DHT22;6194;49.010;8.414;2023-04-24T03:48:55;10.20;99.90
12264;DHT22;6194;49.010;8.414;2023-04-24T03:51:21;10.40;99.90
12264;DHT22;6194;49.010;8.414;2023-04-24T03:53:48;10.20;99.90
12264;DHT22;6194;49.010;8.414;2023-04-24T03:56:14;10.20;99.90
12264;DHT22;6194;49.010;8.414;2023-04-24T03:58:40;10.20;99.90
12264;DHT22;6194;49.010;8.414;2023-04-24T04:01:05;10.10;99.90
12264;DHT22;6194;49.010;8.414;2023-04-24T04:03:31;10.00;99.90
12264;DHT22;6194;49.010;8.414;2023-04-24T04:05:57;9.90;99.90
12264;DHT22;6194;49.010;8.414;2023-04-24T04:08:23;9.90;99.90
12264;DHT22;6194;49.010;8.414;2023-04-24T04:10:48;9.90;99.90
12264;DHT22;6194;49.010;8.414;2023-04-24T04:13:14;9.80;99.90
12264;DHT22;6194;49.010;8.414;2023-04-24T04:15:40;9.80;99.90
12264;DHT22;6194;49.010;8.414;2023-04-24T04:18:06;9.70;99.90
12264;DHT22;6194;49.010;8.414;2023-04-24T04:20:31;9.60;99.90
12264;DHT22;6194;49.010;8.414;2023-04-24T04:22:57;9.50;99.90
12264;DHT22;6194;49.010;8.414;2023-04-24T04:25:22;9.40;99.90
12264;DHT22;6194;49.010;8.414;2023-04-24T04:27:48;9.40;99.90
12264;DHT22;6194;49.010;8.414;2023-04-24T04:30:14;9.40;99.90
12264;DHT22;6194;49.010;8.414;2023-04-24T04:32:40;9.40;99.90
12264;DHT22;6194;49.010;8.414;2023-04-24T04:35:06;9.30;99.90
12264;DHT22;6194;49.010;8.414;2023-04-24T04:37:32;9.20;99.90
12264;DHT22;6194;49.010;8.414;2023-04-24T04:40:02;9.20;99.90
12264;DHT22;6194;49.010;8.414;2023-04-24T04:42:37;9.20;99.90
12264;DHT22;6194;49.010;8.414;2023-04-24T04:45:09;9.20;99.90
12264;DHT22;6194;49.010;8.414;2023-04-24T04:47:34;9.20;99.90
12264;DHT22;6194;49.010;8.414;2023-04-24T04:50:00;9.10;99.90
12264;DHT22;6194;49.010;8.414;2023-04-24T04:52:26;9.20;99.90
12264;DHT22;6194;49.010;8.414;2023-04-24T04:54:52;9.10;99.90
12264;DHT22;6194;49.010;8.414;2023-04-24T04:57:18;9.10;99.90
12264;DHT22;6194;49.010;8.414;2023-04-24T04:59:44;9.20;99.90
12264;DHT22;6194;49.010;8.414;2023-04-24T05:02:10;9.20;99.90
12264;DHT22;6194;49.010;8.414;2023-04-24T05:04:35;9.40;99.90
12264;DHT22;6194;49.010;8.414;2023-04-24T05:07:01;9.80;99.90
12264;DHT22;6194;49.010;8.414;2023-04-24T05:09:26;10.30;99.90
12264;DHT22;6194;49.010;8.414;2023-04-24T05:11:54;10.80;99.90
12264;DHT22;6194;49.010;8.414;2023-04-24T05:14:19;11.30;99.90
12264;DHT22;6194;49.010;8.414;2023-04-24T05:16:45;11.80;99.90
12264;DHT22;6194;49.010;8.414;2023-04-24T05:19:11;12.10;99.90
12264;DHT22;6194;49.010;8.414;2023-04-24T05:21:39;12.40;99.90
12264;DHT22;6194;49.010;8.414;2023-04-24T05:24:05;12.90;99.90
12264;DHT22;6194;49.010;8.414;2023-04-24T05:26:31;13.30;99.90
12264;DHT22;6194;49.010;8.414;2023-04-24T05:28:56;13.60;99.90
12264;DHT22;6194;49.010;8.414;2023-04-24T05:31:22;13.60;99.90
12264;DHT22;6194;49.010;8.414;2023-04-24T05:33:47;13.70;99.90
12264;DHT22;6194;49.010;8.414;2023-04-24T05:36:13;13.30;99.90
12264;DHT22;6194;49.010;8.414;2023-04-24T05:38:39;12.80;99.90
12264;DHT22;6194;49.010;8.414;2023-04-24T05:41:04;12.60;99.90
12264;DHT22;6194;49.010;8.414;2023-04-24T05:43:30;12.30;99.90
12264;DHT22;6194;49.010;8.414;2023-04-24T05:45:56;12.10;99.90
12264;DHT22;6194;49.010;8.414;2023-04-24T05:48:21;11.90;99.90
12264;DHT22;6194;49.010;8.414;2023-04-24T05:50:48;11.80;99.90
12264;DHT22;6194;49.010;8.414;2023-04-24T05:53:13;11.70;99.90
12264;DHT22;6194;49.010;8.414;2023-04-24T05:55:39;11.80;99.90
12264;DHT22;6194;49.010;8.414;2023-04-24T05:58:05;11.80;99.90
12264;DHT22;6194;49.010;8.414;2023-04-24T06:00:31;12.00;99.90
12264;DHT22;6194;49.010;8.414;2023-04-24T06:02:57;12.10;99.90
12264;DHT22;6194;49.010;8.414;2023-04-24T06:05:24;12.10;99.90
12264;DHT22;6194;49.010;8.414;2023-04-24T06:07:50;12.00;99.90
12264;DHT22;6194;49.010;8.414;2023-04-24T06:10:16;12.00;99.90
12264;DHT22;6194;49.010;8.414;2023-04-24T06:12:41;12.00;99.90
12264;DHT22;6194;49.010;8.414;2023-04-24T06:15:07;12.20;99.90
12264;DHT22;6194;49.010;8.414;2023-04-24T06:17:33;12.30;99.90
12264;DHT22;6194;49.010;8.414;2023-04-24T06:19:59;12.30;99.90
12264;DHT22;6194;49.010;8.414;2023-04-24T06:22:24;12.20;99.90
12264;DHT22;6194;49.010;8.414;2023-04-24T06:24:50;12.10;99.90
12264;DHT22;6194;49.010;8.414;2023-04-24T06:27:15;12.10;99.90
12264;DHT22;6194;49.010;8.414;2023-04-24T06:29:41;12.00;99.90
12264;DHT22;6194;49.010;8.414;2023-04-24T06:32:07;11.90;99.90
12264;DHT22;6194;49.010;8.414;2023-04-24T06:34:33;11.70;99.90
12264;DHT22;6194;49.010;8.414;2023-04-24T06:36:59;11.70;99.90
12264;DHT22;6194;49.010;8.414;2023-04-24T06:39:25;11.70;99.90
12264;DHT22;6194;49.010;8.414;2023-04-24T06:41:51;11.90;99.90
12264;DHT22;6194;49.010;8.414;2023-04-24T06:44:16;12.00;99.90
12264;DHT22;6194;49.010;8.414;2023-04-24T06:46:42;12.00;99.90
12264;DHT22;6194;49.010;8.414;2023-04-24T06:49:07;12.00;99.90
12264;DHT22;6194;49.010;8.414;2023-04-24T06:51:33;12.00;99.90
12264;DHT22;6194;49.010;8.414;2023-04-24T06:53:59;12.20;99.90
12264;DHT22;6194;49.010;8.414;2023-04-24T06:56:25;12.30;99.90
12264;DHT22;6194;49.010;8.414;2023-04-24T06:58:51;12.60;99.90
12264;DHT22;6194;49.010;8.414;2023-04-24T07:01:17;12.60;99.90
12264;DHT22;6194;49.010;8.414;2023-04-24T07:03:43;12.70;99.90
12264;DHT22;6194;49.010;8.414;2023-04-24T07:06:09;12.60;99.90
12264;DHT22;6194;49.010;8.414;2023-04-24T07:08:36;12.30;99.90
12264;DHT22;6194;49.010;8.414;2023-04-24T07:11:02;12.10;99.90
12264;DHT22;6194;49.010;8.414;2023-04-24T07:13:28;12.20;99.90
12264;DHT22;6194;49.010;8.414;2023-04-24T07:15:54;12.40;99.90
12264;DHT22;6194;49.010;8.414;2023-04-24T07:18:21;12.60;99.90
12264;DHT22;6194;49.010;8.414;2023-04-24T07:20:47;12.80;99.90
12264;DHT22;6194;49.010;8.414;2023-04-24T07:23:12;12.70;99.90
12264;DHT22;6194;49.010;8.414;2023-04-24T07:25:38;12.70;99.90
12264;DHT22;6194;49.010;8.414;2023-04-24T07:28:04;12.40;99.90
12264;DHT22;6194;49.010;8.414;2023-04-24T07:30:31;12.20;99.90
12264;DHT22;6194;49.010;8.414;2023-04-24T07:32:58;12.30;99.90
12264;DHT22;6194;49.010;8.414;2023-04-24T07:35:24;12.50;99.90
12264;DHT22;6194;49.010;8.414;2023-04-24T07:37:51;12.60;99.90
12264;DHT22;6194;49.010;8.414;2023-04-24T07:40:18;12.60;99.90
12264;DHT22;6194;49.010;8.414;2023-04-24T07:42:44;12.90;99.90
12264;DHT22;6194;49.010;8.414;2023-04-24T07:45:09;12.90;99.90
12264;DHT22;6194;49.010;8.414;2023-04-24T07:47:35;12.70;99.90
12264;DHT22;6194;49.010;8.414;2023-04-24T07:50:02;12.40;99.90
12264;DHT22;6194;49.010;8.414;2023-04-24T07:52:28;12.60;99.90
12264;DHT22;6194;49.010;8.414;2023-04-24T07:54:54;12.70;99.90
12264;DHT22;6194;49.010;8.414;2023-04-24T07:57:24;12.80;99.90
12264;DHT22;6194;49.010;8.414;2023-04-24T07:59:50;12.50;99.90
12264;DHT22;6194;49.010;8.414;2023-04-24T08:02:16;12.40;99.90
12264;DHT22;6194;49.010;8.414;2023-04-24T08:04:41;12.00;99.90
12264;DHT22;6194;49.010;8.414;2023-04-24T08:07:07;11.70;99.90
12264;DHT22;6194;49.010;8.414;2023-04-24T08:09:33;11.50;99.90
12264;DHT22;6194;49.010;8.414;2023-04-24T08:11:59;11.60;99.90
12264;DHT22;6194;49.010;8.414;2023-04-24T08:14:25;11.80;99.90
12264;DHT22;6194;49.010;8.414;2023-04-24T08:16:52;11.90;99.90
12264;DHT22;6194;49.010;8.414;2023-04-24T08:19:17;12.40;99.90
12264;DHT22;6194;49.010;8.414;2023-04-24T08:21:43;12.60;99.90
12264;DHT22;6194;49.010;8.414;2023-04-24T08:24:08;12.70;99.90
12264;DHT22;6194;49.010;8.414;2023-04-24T08:26:34;13.00;99.90
12264;DHT22;6194;49.010;8.414;2023-04-24T08:29:00;13.00;99.90
12264;DHT22;6194;49.010;8.414;2023-04-24T08:31:25;13.10;99.90
12264;DHT22;6194;49.010;8.414;2023-04-24T08:33:51;13.10;99.90
12264;DHT22;6194;49.010;8.414;2023-04-24T08:36:17;13.10;99.90
12264;DHT22;6194;49.010;8.414;2023-04-24T08:38:42;12.70;99.90
12264;DHT22;6194;49.010;8.414;2023-04-24T08:41:09;12.00;99.90
12264;DHT22;6194;49.010;8.414;2023-04-24T08:43:35;11.90;99.90
12264;DHT22;6194;49.010;8.414;2023-04-24T08:46:04;12.00;99.90
12264;DHT22;6194;49.010;8.414;2023-04-24T08:48:30;11.90;99.90
12264;DHT22;6194;49.010;8.414;2023-04-24T08:50:57;11.90;99.90
12264;DHT22;6194;49.010;8.414;2023-04-24T08:53:25;12.10;99.90
12264;DHT22;6194;49.010;8.414;2023-04-24T08:55:51;12.00;99.90
12264;DHT22;6194;49.010;8.414;2023-04-24T08:58:19;12.30;99.90
12264;DHT22;6194;49.010;8.414;2023-04-24T09:00:47;12.60;99.90
12264;DHT22;6194;49.010;8.414;2023-04-24T09:03:15;13.20;99.90
12264;DHT22;6194;49.010;8.414;2023-04-24T09:05:43;13.70;99.90
12264;DHT22;6194;49.010;8.414;2023-04-24T09:08:12;14.10;99.90
12264;DHT22;6194;49.010;8.414;2023-04-24T09:10:40;14.30;99.90
12264;DHT22;6194;49.010;8.414;2023-04-24T09:13:06;14.20;99.90
12264;DHT22;6194;49.010;8.414;2023-04-24T09:15:35;14.00;99.90
12264;DHT22;6194;49.010;8.414;2023-04-24T09:18:01;13.90;99.90
12264;DHT22;6194;49.010;8.414;2023-04-24T09:20:27;13.30;99.90
12264;DHT22;6194;49.010;8.414;2023-04-24T09:22:57;12.90;99.90
12264;DHT22;6194;49.010;8.414;2023-04-24T09:25:34;12.80;99.90
12264;DHT22;6194;49.010;8.414;2023-04-24T09:28:02;13.00;99.90
12264;DHT22;6194;49.010;8.414;2023-04-24T09:30:29;13.00;99.90
12264;DHT22;6194;49.010;8.414;2023-04-24T09:33:14;13.00;99.90
12264;DHT22;6194;49.010;8.414;2023-04-24T09:35:41;13.30;99.90
12264;DHT22;6194;49.010;8.414;2023-04-24T09:38:08;13.50;99.90
12264;DHT22;6194;49.010;8.414;2023-04-24T09:40:35;13.80;99.90
12264;DHT22;6194;49.010;8.414;2023-04-24T09:43:01;13.50;99.90
12264;DHT22;6194;49.010;8.414;2023-04-24T09:45:34;13.70;99.90
12264;DHT22;6194;49.010;8.414;2023-04-24T09:48:01;13.70;99.90
12264;DHT22;6194;49.010;8.414;2023-04-24T09:50:27;13.60;99.90
12264;DHT22;6194;49.010;8.414;2023-04-24T09:53:01;13.60;99.90
12264;DHT22;6194;49.010;8.414;2023-04-24T09:55:27;13.90;99.90
12264;DHT22;6194;49.010;8.414;2023-04-24T09:58:00;14.10;99.90
12264;DHT22;6194;49.010;8.414;2023-04-24T10:00:28;14.40;99.90
12264;DHT22;6194;49.010;8.414;2023-04-24T10:05:32;14.50;99.90
12264;DHT22;6194;49.010;8.414;2023-04-24T10:08:06;14.50;99.90
12264;DHT22;6194;49.010;8.414;2023-04-24T10:10:34;14.60;99.90
12264;DHT22;6194;49.010;8.414;2023-04-24T10:13:00;15.00;99.90
12264;DHT22;6194;49.010;8.414;2023-04-24T10:15:27;14.90;99.90
12264;DHT22;6194;49.010;8.414;2023-04-24T10:17:53;14.80;99.90
12264;DHT22;6194;49.010;8.414;2023-04-24T10:20:20;14.30;99.90
12264;DHT22;6194;49.010;8.414;2023-04-24T10:22:51;14.20;99.90
12264;DHT22;6194;49.010;8.414;2023-04-24T10:25:28;14.10;99.90
12264;DHT22;6194;49.010;8.414;2023-04-24T10:27:54;13.70;99.90
12264;DHT22;6194;49.010;8.414;2023-04-24T10:30:26;13.30;99.90
12264;DHT22;6194;49.010;8.414;2023-04-24T10:32:51;13.30;99.90
12264;DHT22;6194;49.010;8.414;2023-04-24T10:35:18;13.10;99.90
12264;DHT22;6194;49.010;8.414;2023-04-24T10:38:12;13.00;99.90
12264;DHT22;6194;49.010;8.414;2023-04-24T10:40:38;12.70;99.90
12264;DHT22;6194;49.010;8.414;2023-04-24T10:43:08;12.60;99.90
12264;DHT22;6194;49.010;8.414;2023-04-24T10:45:37;12.70;99.90
12264;DHT22;6194;49.010;8.414;2023-04-24T10:48:07;12.90;99.90
12264;DHT22;6194;49.010;8.414;2023-04-24T10:50:47;12.80;99.90
12264;DHT22;6194;49.010;8.414;2023-04-24T10:53:16;13.00;99.90
12264;DHT22;6194;49.010;8.414;2023-04-24T10:55:48;13.60;99.90
12264;DHT22;6194;49.010;8.414;2023-04-24T10:58:15;14.10;99.90
12264;DHT22;6194;49.010;8.414;2023-04-24T11:00:43;14.10;99.90
12264;DHT22;6194;49.010;8.414;2023-04-24T11:03:36;13.70;99.90
12264;DHT22;6194;49.010;8.414;2023-04-24T11:06:02;13.20;99.90
12264;DHT22;6194;49.010;8.414;2023-04-24T11:08:39;12.60;99.90
12264;DHT22;6194;49.010;8.414;2023-04-24T11:11:11;12.50;99.90
12264;DHT22;6194;49.010;8.414;2023-04-24T11:16:29;11.80;99.90
12264;DHT22;6194;49.010;8.414;2023-04-24T11:21:40;11.60;99.90
12264;DHT22;6194;49.010;8.414;2023-04-24T11:24:27;11.90;99.90
12264;DHT22;6194;49.010;8.414;2023-04-24T11:27:11;12.20;99.90
12264;DHT22;6194;49.010;8.414;2023-04-24T11:32:26;12.50;99.90
12264;DHT22;6194;49.010;8.414;2023-04-24T11:37:19;12.20;99.90
12264;DHT22;6194;49.010;8.414;2023-04-24T11:39:44;12.40;99.90
12264;DHT22;6194;49.010;8.414;2023-04-24T11:42:10;12.80;99.90
12264;DHT22;6194;49.010;8.414;2023-04-24T11:44:36;13.20;99.90
12264;DHT22;6194;49.010;8.414;2023-04-24T11:47:05;13.20;99.90
12264;DHT22;6194;49.010;8.414;2023-04-24T11:49:32;13.20;99.90
12264;DHT22;6194;49.010;8.414;2023-04-24T11:51:59;13.20;99.90
12264;DHT22;6194;49.010;8.414;2023-04-24T11:54:25;13.10;99.90
12264;DHT22;6194;49.010;8.414;2023-04-24T11:56:50;12.90;99.90
12264;DHT22;6194;49.010;8.414;2023-04-24T11:59:16;12.70;99.90
12264;DHT22;6194;49.010;8.414;2023-04-24T12:01:45;12.90;99.90
12264;DHT22;6194;49.010;8.414;2023-04-24T12:04:12;13.00;99.90
12264;DHT22;6194;49.010;8.414;2023-04-24T12:06:37;13.30;99.90
12264;DHT22;6194;49.010;8.414;2023-04-24T12:09:03;13.40;99.90
12264;DHT22;6194;49.010;8.414;2023-04-24T12:11:29;13.60;99.90
12264;DHT22;6194;49.010;8.414;2023-04-24T12:13:55;13.80;99.90
12264;DHT22;6194;49.010;8.414;2023-04-24T12:16:20;13.90;99.90
12264;DHT22;6194;49.010;8.414;2023-04-24T12:18:46;14.60;99.90
12264;DHT22;6194;49.010;8.414;2023-04-24T12:23:46;15.10;99.90
12264;DHT22;6194;49.010;8.414;2023-04-24T12:26:16;13.50;99.90
12264;DHT22;6194;49.010;8.414;2023-04-24T12:28:42;14.60;99.90
12264;DHT22;6194;49.010;8.414;2023-04-24T12:31:07;14.60;99.90
12264;DHT22;6194;49.010;8.414;2023-04-24T12:33:34;14.90;99.90
12264;DHT22;6194;49.010;8.414;2023-04-24T12:36:00;14.60;99.90
12264;DHT22;6194;49.010;8.414;2023-04-24T12:38:27;14.80;99.90
12264;DHT22;6194;49.010;8.414;2023-04-24T12:41:06;14.80;99.90
12264;DHT22;6194;49.010;8.414;2023-04-24T12:43:32;14.50;99.90
12264;DHT22;6194;49.010;8.414;2023-04-24T12:45:57;14.70;99.90
12264;DHT22;6194;49.010;8.414;2023-04-24T12:48:27;15.20;99.90
12264;DHT22;6194;49.010;8.414;2023-04-24T12:50:53;15.30;99.90
12264;DHT22;6194;49.010;8.414;2023-04-24T12:53:19;15.60;99.90
12264;DHT22;6194;49.010;8.414;2023-04-24T12:55:45;15.90;99.90
12264;DHT22;6194;49.010;8.414;2023-04-24T12:58:12;16.10;99.90
12264;DHT22;6194;49.010;8.414;2023-04-24T13:00:38;15.90;99.90
12264;DHT22;6194;49.010;8.414;2023-04-24T13:03:04;15.70;99.90
12264;DHT22;6194;49.010;8.414;2023-04-24T13:05:30;15.60;99.90
12264;DHT22;6194;49.010;8.414;2023-04-24T13:07:57;15.60;99.90
12264;DHT22;6194;49.010;8.414;2023-04-24T13:10:23;15.50;99.90
12264;DHT22;6194;49.010;8.414;2023-04-24T13:12:48;15.40;99.90
12264;DHT22;6194;49.010;8.414;2023-04-24T13:15:14;15.40;99.90
12264;DHT22;6194;49.010;8.414;2023-04-24T13:17:40;15.00;99.90
12264;DHT22;6194;49.010;8.414;2023-04-24T13:20:06;15.10;99.90
12264;DHT22;6194;49.010;8.414;2023-04-24T13:22:32;15.10;99.90
12264;DHT22;6194;49.010;8.414;2023-04-24T13:24:57;15.00;99.90
12264;DHT22;6194;49.010;8.414;2023-04-24T13:27:23;14.80;99.90
12264;DHT22;6194;49.010;8.414;2023-04-24T13:29:49;14.90;99.90
12264;DHT22;6194;49.010;8.414;2023-04-24T13:32:14;15.20;99.90
12264;DHT22;6194;49.010;8.414;2023-04-24T13:34:40;15.20;99.90
12264;DHT22;6194;49.010;8.414;2023-04-24T13:37:06;15.40;99.90
12264;DHT22;6194;49.010;8.414;2023-04-24T13:39:33;15.40;99.90
12264;DHT22;6194;49.010;8.414;2023-04-24T13:41:58;15.50;99.90
12264;DHT22;6194;49.010;8.414;2023-04-24T13:44:24;15.70;99.90
12264;DHT22;6194;49.010;8.414;2023-04-24T13:46:52;15.50;99.90
12264;DHT22;6194;49.010;8.414;2023-04-24T13:49:19;15.60;99.90
12264;DHT22;6194;49.010;8.414;2023-04-24T13:51:45;15.80;99.90
12264;DHT22;6194;49.010;8.414;2023-04-24T13:54:11;15.80;99.90
12264;DHT22;6194;49.010;8.414;2023-04-24T13:56:37;15.70;99.90
12264;DHT22;6194;49.010;8.414;2023-04-24T13:59:02;15.50;99.90
12264;DHT22;6194;49.010;8.414;2023-04-24T14:01:28;15.30;99.90
12264;DHT22;6194;49.010;8.414;2023-04-24T14:03:55;15.30;99.90
12264;DHT22;6194;49.010;8.414;2023-04-24T14:06:21;15.40;99.90
12264;DHT22;6194;49.010;8.414;2023-04-24T14:08:49;15.70;99.90
12264;DHT22;6194;49.010;8.414;2023-04-24T14:11:16;15.50;99.90
12264;DHT22;6194;49.010;8.414;2023-04-24T14:13:42;15.80;99.90
12264;DHT22;6194;49.010;8.414;2023-04-24T14:16:08;15.70;99.90
12264;DHT22;6194;49.010;8.414;2023-04-24T14:18:33;14.90;99.90
12264;DHT22;6194;49.010;8.414;2023-04-24T14:20:59;14.70;99.90
12264;DHT22;6194;49.010;8.414;2023-04-24T14:23:26;13.70;99.90
12264;DHT22;6194;49.010;8.414;2023-04-24T14:25:52;12.80;99.90
12264;DHT22;6194;49.010;8.414;2023-04-24T14:28:19;12.40;99.90
12264;DHT22;6194;49.010;8.414;2023-04-24T14:30:46;12.50;99.90
12264;DHT22;6194;49.010;8.414;2023-04-24T14:33:11;12.40;99.90
12264;DHT22;6194;49.010;8.414;2023-04-24T14:35:38;12.40;99.90
12264;DHT22;6194;49.010;8.414;2023-04-24T14:38:04;12.50;99.90
12264;DHT22;6194;49.010;8.414;2023-04-24T14:40:29;12.70;99.90
12264;DHT22;6194;49.010;8.414;2023-04-24T14:42:56;12.70;99.90
12264;DHT22;6194;49.010;8.414;2023-04-24T14:45:23;13.00;99.90
12264;DHT22;6194;49.010;8.414;2023-04-24T14:47:49;13.30;99.90
12264;DHT22;6194;49.010;8.414;2023-04-24T14:50:15;13.50;99.90
12264;DHT22;6194;49.010;8.414;2023-04-24T14:52:40;13.60;99.90
12264;DHT22;6194;49.010;8.414;2023-04-24T14:55:06;13.90;99.90
12264;DHT22;6194;49.010;8.414;2023-04-24T14:57:35;14.00;99.90
12264;DHT22;6194;49.010;8.414;2023-04-24T15:00:04;14.30;99.90
12264;DHT22;6194;49.010;8.414;2023-04-24T15:02:35;14.10;99.90
12264;DHT22;6194;49.010;8.414;2023-04-24T15:05:03;13.90;99.90
12264;DHT22;6194;49.010;8.414;2023-04-24T15:07:29;13.90;99.90
12264;DHT22;6194;49.010;8.414;2023-04-24T15:09:55;14.10;99.90
12264;DHT22;6194;49.010;8.414;2023-04-24T15:12:21;14.10;99.90
12264;DHT22;6194;49.010;8.414;2023-04-24T15:14:47;14.00;99.90
12264;DHT22;6194;49.010;8.414;2023-04-24T15:17:12;13.90;99.90
12264;DHT22;6194;49.010;8.414;2023-04-24T15:19:38;13.90;99.90
12264;DHT22;6194;49.010;8.414;2023-04-24T15:22:03;13.90;99.90
12264;DHT22;6194;49.010;8.414;2023-04-24T15:24:29;13.80;99.90
12264;DHT22;6194;49.010;8.414;2023-04-24T15:26:56;13.80;99.90
12264;DHT22;6194;49.010;8.414;2023-04-24T15:29:22;13.70;99.90
12264;DHT22;6194;49.010;8.414;2023-04-24T15:31:48;13.60;99.90
12264;DHT22;6194;49.010;8.414;2023-04-24T15:34:13;13.70;99.90
12264;DHT22;6194;49.010;8.414;2023-04-24T15:36:39;13.80;99.90
12264;DHT22;6194;49.010;8.414;2023-04-24T15:39:05;13.60;99.90
12264;DHT22;6194;49.010;8.414;2023-04-24T15:41:30;13.40;99.90
12264;DHT22;6194;49.010;8.414;2023-04-24T15:43:57;13.00;99.90
12264;DHT22;6194;49.010;8.414;2023-04-24T15:46:23;12.60;99.90
12264;DHT22;6194;49.010;8.414;2023-04-24T15:48:48;12.10;99.90
12264;DHT22;6194;49.010;8.414;2023-04-24T15:51:14;11.80;99.90
12264;DHT22;6194;49.010;8.414;2023-04-24T15:53:40;11.60;99.90
12264;DHT22;6194;49.010;8.414;2023-04-24T15:56:05;11.60;99.90
12264;DHT22;6194;49.010;8.414;2023-04-24T15:58:31;11.50;99.90